x

San Clemente Basin - 27nm Se Of San Clemente Is, Ca (46086) Wave Buoy

2:50am - Sun 17th Feb 2019 All times are PST. -8 hours from GMT.

  • Sig Wave height 11.2ft
  • Swell Direction
  • Peak Period 8s
  • Average Period 7s
  • Wind
    27mph, 31mph gusts
  • Sea Temp 60°f
  • Air Temp 56°f
  • Sea Pressure 1019.4mb
  • San Clemente Basin - 27nm Se Of San Clemente Is, Ca
  • San Clemente Basin - 27nm Se Of San Clemente Is, Ca

More Historic Weather Station data

Upgrade to MSW Pro to gain access to the past 30 days of data for over 8000 Wavebouys and Weather Stations around the globe.

Join

Comparision Forecast

View Surf forecast
   
Sun 02/17 2:50am 11ft 8s 7s 27 31 mph 1019.4mb 60f 56f
1:50am 13ft 8s 7s 31 38 mph 1019.4mb 60f 56f
12:50am 12ft 9s 7s 27 34 mph 1019.9mb 60f 57f
Sat 02/16 11:50pm 12.5ft 16s 7s 27 34 mph 1020.1mb 60f 56f
10:50pm 13ft 8s 8s 29 34 mph 1020.2mb 60f 56f
9:50pm 12ft 9s 7s 25 31 mph 1020.4mb 60f 57f
8:50pm 13ft 8s 7s 25 31 mph 1020.5mb 60f 56f
7:50pm 12ft 8s 7s 27 31 mph 1020.1mb 60f 57f
6:50pm 11.5ft 8s 7s 27 36 mph 1019.7mb 60f 57f
5:50pm 11ft 14s 7s 27 34 mph 1019.5mb 60f 56f
4:50pm 11.5ft 16s 8s 27 34 mph 1019.8mb 60f 57f
3:50pm 10.5ft 15s 7s 27 31 mph 1019.7mb 60f 57f
2:50pm 11ft 14s 7s 25 29 mph 1019.9mb 60f 57f
1:50pm 11.5ft 16s 8s 27 34 mph 1020mb 60f 56f
12:50pm 11.5ft 16s 8s 22 29 mph 1021.2mb 60f 56f
11:50am 11ft 16s 7s 22 27 mph 1021.8mb 60f 56f
10:50am 12ft 16s 7s 22 27 mph 1022.1mb 60f 56f
9:50am 11.5ft 14s 8s 25 31 mph 1022.3mb 60f 56f
8:50am 12ft 16s 8s 27 31 mph 1022.1mb 60f 56f
7:50am 11ft 16s 7s 27 34 mph 1021.6mb 60f 56f
6:50am 10ft 16s 7s 27 31 mph 1021mb 60f 56f
5:50am 9ft 11s 7s 25 31 mph 1020.6mb 60f 56f
4:50am 8ft 12s 6s 25 31 mph 1020.3mb 60f 56f
3:50am 9ft 11s 7s 27 34 mph 1019.8mb 60f 56f
2:50am 8ft 11s 7s 22 27 mph 1020mb 60f 56f
1:50am 8ft 11s 7s 22 27 mph 1020mb 60f 57f
12:50am 8ft 11s 7s 22 27 mph 1020.1mb 60f 57f
Fri 02/15 11:50pm 8ft 11s 7s 20 25 mph 1020.3mb 60f 58f
10:50pm 7ft 11s 7s 16 20 mph 1020.2mb 60f 57f
9:50pm 7.5ft 11s 7s 16 18 mph 1020.4mb 60f 57f
8:50pm 8.5ft 10s 8s 20 25 mph 1020mb 60f 58f
7:50pm 7.5ft 10s 8s 20 25 mph 1019.8mb 60f 57f
6:50pm 7ft 10s 8s 11 16 mph 1019.7mb 60f 59f
5:50pm 6.5ft 11s 7s 13 18 mph 1019.5mb 60f 59f
4:50pm 7ft 13s 8s 13 16 mph 1019.9mb 60f 59f
3:50pm 7ft 11s 8s 13 16 mph 1019.7mb 60f 59f
2:50pm 7ft 13s 8s 9 13 mph 1019.7mb 60f 59f
1:50pm 6.5ft 13s 8s 11 13 mph 1020.4mb 60f 59f
12:50pm 7ft 9s 7s 7 9 mph 1020.5mb 60f 59f
11:50am 7ft 11s 7s 9 11 mph 1021.2mb 60f 59f
10:50am 7.5ft 10s 7s 4 7 mph 1021.2mb 60f 59f
9:50am 7.5ft 10s 7s 7 9 mph 1021.1mb 60f 58f
8:50am 8.5ft 9s 8s 11 16 mph 1020.5mb 60f 58f
7:50am 9ft 8s 8s 7 11 mph 1019.6mb 60f 58f
6:50am 7.5ft 8s 7s 11 13 mph 1019.2mb 60f 58f
5:50am 7.5ft 9s 7s 11 16 mph 1018.7mb 60f 58f
4:50am 7ft 9s 7s 13 18 mph 1017.9mb 60f 58f
3:50am 7ft 9s 7s 11 16 mph 1017.6mb 60f 58f
2:50am 7ft 8s 7s 11 16 mph 1017.1mb 60f 58f
1:50am 7ft 9s 7s 11 13 mph 1016.8mb 60f 59f
12:50am 7ft 9s 7s 13 18 mph 1017.3mb 60f 59f
Thu 02/14 11:50pm 7ft 8s 7s 13 16 mph 1017.5mb 60f 59f
10:50pm 7ft 9s 7s 13 18 mph 1017.1mb 60f 59f
9:50pm 7ft 8s 7s 13 16 mph 1016.9mb 60f 60f
8:50pm 8ft 10s 7s 13 18 mph 1016.4mb 60f 60f
7:50pm 7.5ft 9s 6s 16 20 mph 1015.2mb 60f 60f
6:50pm 8ft 7s 7s 18 22 mph 1014.6mb 60f 60f
5:50pm 8ft 6s 7s 9 11 mph 1013.2mb 60f 60f
4:50pm 7.5ft 9s 6s 16 20 mph 1012.7mb 60f 60f
3:50pm 8.5ft 7s 7s 18 20 mph 1012mb 60f 60f
2:50pm 9.5ft 7s 7s 25 29 mph 1011.7mb 60f 58f
1:50pm 8.5ft 7s 6s 18 22 mph 1010.9mb 60f 61f
12:50pm 9ft 7s 6s 20 25 mph 1011mb 60f 61f
11:50am 9ft 7s 6s 25 29 mph 1010.6mb 60f 62f
10:50am 9.5ft 7s 6s 20 25 mph 1010.2mb 60f 62f
9:50am 9ft 8s 6s 20 22 mph 1009.7mb 60f 62f
8:50am 9ft 7s 6s 22 27 mph 1010.3mb 60f 62f
7:50am 10ft 7s 6s 25 31 mph 1008.7mb 60f 62f
6:50am 9.5ft 8s 6s 25 29 mph 1009.5mb 60f 62f
5:50am 10ft 7s 6s 25 31 mph 1009.2mb 60f 62f
4:50am 10.5ft 8s 6s 25 29 mph 1009.5mb 60f 61f
3:50am 10ft 8s 6s 29 34 mph 1009.3mb 60f 61f
2:50am 9ft 7s 6s 29 38 mph 1009.7mb 60f 61f
1:50am 10ft 7s 6s 31 38 mph 1009.8mb 60f 60f
12:50am 9ft 7s 6s 29 34 mph 1010.3mb 60f 60f
Wed 02/13 11:50pm 8ft 6s 6s 27 31 mph 1011.1mb 60f 60f
10:50pm 8ft 6s 6s 22 29 mph 1011mb 60f 60f
9:50pm 7.5ft 6s 6s 22 27 mph 1012mb 60f 60f
8:50pm 7ft 6s 5s 20 25 mph 1012.8mb 60f 59f
7:50pm 6.5ft 6s 5s 25 31 mph 1012.6mb 60f 58f
6:50pm 6ft 6s 5s 22 27 mph 1012.9mb 60f 58f
5:50pm 6ft 6s 5s 25 29 mph 1012.2mb 60f 58f
4:50pm 5ft 6s 5s 22 27 mph 1012.1mb 60f 57f
3:50pm 5ft 5s 5s 18 20 mph 1012.2mb 60f 58f
2:50pm 5ft 5s 5s 16 20 mph 1012.4mb 60f 58f
1:50pm 4.5ft 5s 5s 20 25 mph 1012.4mb 60f 58f
12:50pm 4.5ft 15s 5s 20 25 mph 1013mb 60f 58f
11:50am 3.5ft 15s 5s 20 22 mph 1013.7mb 60f 59f